Time;durP1;ratioP1;P1;durP2;ratioP2;P2;SDS_P1;SDS_P2;PMS_P1;PMS_P2;Temp;Humidity;BMP_temperature;BMP_pressure;BME280_temperature;BME280_humidity;BME280_pressure;Samples;Min_cycle;Max_cycle;Signal;HPM_P1;HPM_P2
2022/06/08 00:01:58;;;;;;;0.03;0.03;;;;;;;;;;5036790;28;97709;-74
2022/06/08 00:04:25;;;;;;;0.00;0.00;;;;;;;;;;5036562;28;98630;-75
2022/06/08 00:06:52;;;;;;;0.00;0.00;;;;;;;;;;5035828;28;99863;-74
2022/06/08 00:09:19;;;;;;;0.00;0.00;;;;;;;;;;5035814;28;99062;-74
2022/06/08 00:11:46;;;;;;;0.00;0.00;;;;;;;;;;5020890;28;101484;-74
2022/06/08 00:14:13;;;;;;;0.10;0.10;;;;;;;;;;5036236;28;98464;-74
2022/06/08 00:16:40;;;;;;;0.00;0.00;;;;;;;;;;5036209;28;99455;-74
2022/06/08 00:19:06;;;;;;;0.00;0.00;;;;;;;;;;5035774;28;99610;-74
2022/06/08 00:21:34;;;;;;;0.00;0.00;;;;;;;;;;5035705;28;98400;-74
2022/06/08 00:24:01;;;;;;;0.00;0.00;;;;;;;;;;5036084;28;99461;-74
2022/06/08 00:26:27;;;;;;;0.00;0.00;;;;;;;;;;5018324;28;100356;-74
2022/06/08 00:28:54;;;;;;;0.00;0.00;;;;;;;;;;5036045;28;98380;-75
2022/06/08 00:31:21;;;;;;;0.00;0.00;;;;;;;;;;5017948;28;102490;-74
2022/06/08 00:33:48;;;;;;;0.00;0.00;;;;;;;;;;5020197;28;101093;-75
2022/06/08 00:36:15;;;;;;;0.00;0.00;;;;;;;;;;5036068;28;99458;-74
2022/06/08 00:38:41;;;;;;;0.00;0.00;;;;;;;;;;5017452;28;100714;-73
2022/06/08 00:41:24;;;;;;;0.00;0.00;;;;;;;;;;5035903;28;98315;-73
2022/06/08 00:43:51;;;;;;;0.00;0.00;;;;;;;;;;5017728;28;102040;-74
2022/06/08 00:46:18;;;;;;;0.00;0.00;;;;;;;;;;5034891;28;99041;-74
2022/06/08 00:48:47;;;;;;;0.00;0.00;;;;;;;;;;5035908;28;98541;-74
2022/06/08 00:51:14;;;;;;;0.00;0.00;;;;;;;;;;5036359;28;99211;-74
2022/06/08 00:53:43;;;;;;;0.10;0.10;;;;;;;;;;5035488;28;99037;-73
2022/06/08 00:56:15;;;;;;;0.00;0.00;;;;;;;;;;5020812;28;98397;-74
2022/06/08 00:58:42;;;;;;;0.20;0.20;;;;;;;;;;5016344;28;101096;-74
2022/06/08 01:01:09;;;;;;;0.00;0.00;;;;;;;;;;5035934;28;98276;-74
2022/06/08 01:03:36;;;;;;;0.10;0.10;;;;;;;;;;5017780;28;101439;-74
2022/06/08 01:06:04;;;;;;;0.00;0.00;;;;;;;;;;5017036;28;103056;-74
2022/06/08 01:08:38;;;;;;;0.00;0.00;;;;;;;;;;5016729;28;98467;-74
2022/06/08 01:11:10;;;;;;;0.00;0.00;;;;;;;;;;5017029;28;101596;-74
2022/06/08 01:13:38;;;;;;;0.10;0.10;;;;;;;;;;5016756;28;103074;-73
2022/06/08 01:16:10;;;;;;;0.10;0.10;;;;;;;;;;5021155;28;97631;-74
2022/06/08 01:18:38;;;;;;;0.32;0.05;;;;;;;;;;5028918;27;101954;-74
2022/06/08 01:21:20;;;;;;;0.10;0.10;;;;;;;;;;5055515;27;98931;-74
2022/06/08 01:23:55;;;;;;;0.00;0.00;;;;;;;;;;5036555;27;101828;-74
2022/06/08 01:26:24;;;;;;;0.00;0.00;;;;;;;;;;5036749;27;102263;-74
2022/06/08 01:29:01;;;;;;;2.35;0.57;;;;;;;;;;5037188;27;99147;-74
2022/06/08 01:31:52;;;;;;;0.00;0.00;;;;;;;;;;5037197;27;102650;-74
2022/06/08 01:34:19;;;;;;;;;;;;;;;;;;5054969;27;99327;-73
2022/06/08 01:37:06;;;;;;;0.13;0.08;;;;;;;;;;5054463;27;117495;-73
2022/06/08 01:39:44;;;;;;;0.00;0.00;;;;;;;;;;5040072;27;102512;-74
2022/06/08 01:42:14;;;;;;;0.00;0.00;;;;;;;;;;5055939;27;98184;-74
2022/06/08 01:45:28;;;;;;;0.00;0.00;;;;;;;;;;5054925;27;98227;-74
2022/06/08 01:47:44;;;;;;;0.20;0.20;;;;;;;;;;5036203;27;100421;-74
2022/06/08 01:50:40;;;;;;;0.00;0.00;;;;;;;;;;5054645;27;99202;-74
2022/06/08 01:53:07;;;;;;;1.15;0.63;;;;;;;;;;5036716;27;101983;-74
2022/06/08 01:55:52;;;;;;;0.43;0.43;;;;;;;;;;5036235;27;102451;-74
2022/06/08 01:58:24;;;;;;;0.00;0.00;;;;;;;;;;5036638;27;99164;-74
2022/06/08 02:00:53;;;;;;;0.00;0.00;;;;;;;;;;5036747;27;100891;-74
2022/06/08 02:03:25;;;;;;;0.00;0.00;;;;;;;;;;5039566;27;102092;-74
2022/06/08 02:05:57;;;;;;;0.40;0.40;;;;;;;;;;5036679;27;101763;-74
2022/06/08 02:08:24;;;;;;;0.00;0.00;;;;;;;;;;5036633;27;101032;-74
2022/06/08 02:10:55;;;;;;;0.00;0.00;;;;;;;;;;5036299;27;98415;-74
2022/06/08 02:13:26;;;;;;;0.00;0.00;;;;;;;;;;5036501;27;101226;-74
2022/06/08 02:15:58;;;;;;;0.00;0.00;;;;;;;;;;5035514;27;102744;-74
2022/06/08 02:18:35;;;;;;;0.00;0.00;;;;;;;;;;5036510;27;98447;-74
2022/06/08 02:21:11;;;;;;;0.00;0.00;;;;;;;;;;5035230;27;99809;-75
2022/06/08 02:23:42;;;;;;;0.00;0.00;;;;;;;;;;5036309;27;98988;-74
2022/06/08 02:26:23;;;;;;;0.00;0.00;;;;;;;;;;5039579;27;98541;-74
2022/06/08 02:28:59;;;;;;;0.00;0.00;;;;;;;;;;5035872;27;103059;-74
2022/06/08 02:31:30;;;;;;;0.00;0.00;;;;;;;;;;5036143;27;98699;-74
2022/06/08 02:36:58;;;;;;;0.08;0.08;;;;;;;;;;5053685;27;99322;-74
2022/06/08 02:39:28;;;;;;;0.00;0.00;;;;;;;;;;5035991;27;98386;-74
2022/06/08 02:42:01;;;;;;;0.00;0.00;;;;;;;;;;5035516;27;101470;-73
2022/06/08 02:44:30;;;;;;;0.00;0.00;;;;;;;;;;5035549;27;101585;-74
2022/06/08 02:47:01;;;;;;;0.00;0.00;;;;;;;;;;5035154;27;98955;-74
2022/06/08 02:49:35;;;;;;;0.00;0.00;;;;;;;;;;5034531;27;101605;-74
2022/06/08 02:52:06;;;;;;;0.20;0.20;;;;;;;;;;5053485;27;98436;-74
2022/06/08 02:54:33;;;;;;;0.00;0.00;;;;;;;;;;5034624;27;101496;-74
2022/06/08 02:57:16;;;;;;;0.00;0.00;;;;;;;;;;5053390;27;99530;-74
2022/06/08 02:59:49;;;;;;;0.00;0.00;;;;;;;;;;5035086;27;99672;-74
2022/06/08 03:02:37;;;;;;;0.00;0.00;;;;;;;;;;5035750;27;101756;-74
2022/06/08 03:05:04;;;;;;;0.22;0.22;;;;;;;;;;5035510;27;102126;-74
2022/06/08 03:07:33;;;;;;;0.00;0.00;;;;;;;;;;5034744;27;99241;-73
2022/06/08 03:10:04;;;;;;;0.00;0.00;;;;;;;;;;5038122;27;101353;-74
2022/06/08 03:12:37;;;;;;;0.00;0.00;;;;;;;;;;5035555;27;98526;-74
2022/06/08 03:15:05;;;;;;;0.00;0.00;;;;;;;;;;5035209;27;102584;-74
2022/06/08 03:17:34;;;;;;;0.00;0.00;;;;;;;;;;5034288;27;101421;-74
2022/06/08 03:20:03;;;;;;;0.00;0.00;;;;;;;;;;5034462;27;98521;-74
2022/06/08 03:22:31;;;;;;;0.00;0.00;;;;;;;;;;5035210;27;102133;-74
2022/06/08 03:24:59;;;;;;;0.00;0.00;;;;;;;;;;5035656;27;101195;-74
2022/06/08 03:27:25;;;;;;;0.00;0.00;;;;;;;;;;5035007;27;98427;-74
2022/06/08 03:29:55;;;;;;;0.00;0.00;;;;;;;;;;5035286;27;102315;-73
2022/06/08 03:32:27;;;;;;;0.00;0.00;;;;;;;;;;5037239;27;103077;-74
2022/06/08 03:34:54;;;;;;;0.22;0.20;;;;;;;;;;5034067;27;102806;-74
2022/06/08 03:37:20;;;;;;;0.00;0.00;;;;;;;;;;5052797;27;99774;-75
2022/06/08 03:39:51;;;;;;;0.00;0.00;;;;;;;;;;5035239;27;98352;-74
2022/06/08 03:42:18;;;;;;;0.00;0.00;;;;;;;;;;5053214;27;99020;-74
2022/06/08 03:44:45;;;;;;;0.00;0.00;;;;;;;;;;5034770;27;102538;-73
2022/06/08 03:47:14;;;;;;;0.00;0.00;;;;;;;;;;5035256;27;98351;-73
2022/06/08 03:49:41;;;;;;;0.47;0.47;;;;;;;;;;5035578;27;102301;-74
2022/06/08 03:52:11;;;;;;;0.00;0.00;;;;;;;;;;5034763;27;100422;-74
2022/06/08 03:54:40;;;;;;;0.00;0.00;;;;;;;;;;5038530;27;98485;-73
2022/06/08 03:57:07;;;;;;;0.00;0.00;;;;;;;;;;5033643;27;100771;-74
2022/06/08 03:59:35;;;;;;;0.00;0.00;;;;;;;;;;5053196;27;98354;-74
2022/06/08 04:02:02;;;;;;;0.10;0.10;;;;;;;;;;5010117;28;101493;-74
2022/06/08 04:04:29;;;;;;;0.00;0.00;;;;;;;;;;4977085;28;101832;-74
2022/06/08 04:06:56;;;;;;;0.00;0.00;;;;;;;;;;4993544;28;99030;-73
2022/06/08 04:09:23;;;;;;;0.00;0.00;;;;;;;;;;4993584;28;102123;-73
2022/06/08 04:11:51;;;;;;;0.68;0.68;;;;;;;;;;4992763;28;101832;-73
2022/06/08 04:14:17;;;;;;;0.00;0.00;;;;;;;;;;5011274;28;97689;-73
2022/06/08 04:16:45;;;;;;;0.00;0.00;;;;;;;;;;4996412;28;101194;-74
2022/06/08 04:19:16;;;;;;;0.00;0.00;;;;;;;;;;4993746;28;98554;-74
2022/06/08 04:21:43;;;;;;;0.00;0.00;;;;;;;;;;4993070;28;101830;-73
2022/06/08 04:24:10;;;;;;;0.10;0.10;;;;;;;;;;5009541;28;102127;-73
2022/06/08 04:26:40;;;;;;;0.00;0.00;;;;;;;;;;5010015;28;98899;-74
2022/06/08 04:29:16;;;;;;;0.35;0.35;;;;;;;;;;4993558;28;101298;-74
2022/06/08 04:31:43;;;;;;;0.10;0.10;;;;;;;;;;4993105;28;102456;-74
2022/06/08 04:34:19;;;;;;;0.00;0.00;;;;;;;;;;5033427;27;98557;-74
2022/06/08 04:36:45;;;;;;;0.00;0.00;;;;;;;;;;5034244;27;100725;-73
2022/06/08 04:39:13;;;;;;;0.10;0.10;;;;;;;;;;5037834;27;102057;-73
2022/06/08 04:41:46;;;;;;;0.00;0.00;;;;;;;;;;5034417;27;100936;-73
2022/06/08 04:44:13;;;;;;;0.00;0.00;;;;;;;;;;5037024;27;101899;-73
2022/06/08 04:46:40;;;;;;;0.00;0.00;;;;;;;;;;5037337;27;99122;-74
2022/06/08 04:49:13;;;;;;;0.00;0.00;;;;;;;;;;5037414;27;101795;-74
2022/06/08 04:51:41;;;;;;;0.10;0.10;;;;;;;;;;5037419;27;102145;-73
2022/06/08 04:54:08;;;;;;;0.00;0.00;;;;;;;;;;5021111;27;100098;-74
2022/06/08 04:56:36;;;;;;;0.20;0.20;;;;;;;;;;5037570;27;102052;-73
2022/06/08 04:59:02;;;;;;;0.20;0.20;;;;;;;;;;5037310;27;102739;-73
2022/06/08 05:01:33;;;;;;;0.00;0.00;;;;;;;;;;5040983;27;98376;-73
2022/06/08 05:04:01;;;;;;;0.10;0.10;;;;;;;;;;5037644;27;101209;-74
2022/06/08 05:06:29;;;;;;;0.10;0.10;;;;;;;;;;5037780;27;98386;-73
2022/06/08 05:08:55;;;;;;;0.05;0.05;;;;;;;;;;5037593;27;102324;-73
2022/06/08 05:11:24;;;;;;;0.10;0.10;;;;;;;;;;5036272;27;103366;-74
2022/06/08 05:13:52;;;;;;;0.00;0.00;;;;;;;;;;5037840;27;98635;-74
2022/06/08 05:16:19;;;;;;;0.00;0.00;;;;;;;;;;5036963;27;101219;-75
2022/06/08 05:18:49;;;;;;;0.00;0.00;;;;;;;;;;5037078;27;101821;-74
2022/06/08 05:21:19;;;;;;;0.10;0.10;;;;;;;;;;5040860;27;98408;-74
2022/06/08 05:23:48;;;;;;;0.20;0.20;;;;;;;;;;5037010;27;102626;-74
2022/06/08 05:26:20;;;;;;;0.10;0.10;;;;;;;;;;5037540;27;98406;-74
2022/06/08 05:28:47;;;;;;;0.30;0.30;;;;;;;;;;5055808;27;99207;-75
2022/06/08 05:31:15;;;;;;;0.00;0.00;;;;;;;;;;5037084;27;101885;-74
2022/06/08 05:33:44;;;;;;;0.00;0.00;;;;;;;;;;5037316;27;98406;-75
2022/06/08 05:36:16;;;;;;;0.10;0.10;;;;;;;;;;5037069;27;102336;-74
2022/06/08 05:38:44;;;;;;;0.10;0.10;;;;;;;;;;5036859;27;102229;-74
2022/06/08 05:41:11;;;;;;;0.00;0.00;;;;;;;;;;5037045;27;98454;-75
2022/06/08 05:43:39;;;;;;;0.00;0.00;;;;;;;;;;5039925;27;101359;-74
2022/06/08 05:46:06;;;;;;;0.00;0.00;;;;;;;;;;5037076;27;98422;-75
2022/06/08 05:48:33;;;;;;;0.00;0.00;;;;;;;;;;5037084;27;102595;-74
2022/06/08 05:51:03;;;;;;;0.10;0.10;;;;;;;;;;5036720;27;102194;-74
2022/06/08 05:53:30;;;;;;;0.00;0.00;;;;;;;;;;5037751;27;97656;-75
2022/06/08 05:55:56;;;;;;;0.10;0.10;;;;;;;;;;5036221;27;101304;-75
2022/06/08 05:58:25;;;;;;;0.13;0.13;;;;;;;;;;5036470;27;101946;-75
2022/06/08 06:00:54;;;;;;;0.00;0.00;;;;;;;;;;5036280;27;99232;-75
2022/06/08 06:03:21;;;;;;;0.00;0.00;;;;;;;;;;5036904;27;101860;-74
2022/06/08 06:05:48;;;;;;;0.00;0.00;;;;;;;;;;5039662;27;102237;-74
2022/06/08 06:08:16;;;;;;;0.10;0.10;;;;;;;;;;5055132;27;99158;-74
2022/06/08 06:10:47;;;;;;;0.10;0.10;;;;;;;;;;5053859;27;99507;-73
2022/06/08 06:13:20;;;;;;;0.30;0.30;;;;;;;;;;5036681;27;98416;-74
2022/06/08 06:15:55;;;;;;;0.00;0.00;;;;;;;;;;5036545;27;102113;-74
2022/06/08 06:18:22;;;;;;;0.20;0.20;;;;;;;;;;5019999;27;101751;-74
2022/06/08 06:21:01;;;;;;;0.10;0.10;;;;;;;;;;5036232;27;98427;-74
2022/06/08 06:24:06;;;;;;;0.10;0.10;;;;;;;;;;4971928;28;98513;-73
2022/06/08 06:26:36;;;;;;;0.00;0.00;;;;;;;;;;4970450;28;100122;-75
2022/06/08 06:29:15;;;;;;;0.10;0.10;;;;;;;;;;5006143;27;98493;-74
2022/06/08 06:32:07;;;;;;;0.10;0.10;;;;;;;;;;5052161;27;98644;-76
2022/06/08 06:34:43;;;;;;;0.10;0.10;;;;;;;;;;5036379;27;98532;-76
2022/06/08 06:37:11;;;;;;;0.00;0.00;;;;;;;;;;5036356;27;102377;-77
2022/06/08 06:39:38;;;;;;;0.00;0.00;;;;;;;;;;5035798;27;102190;-78
2022/06/08 06:42:23;;;;;;;0.10;0.10;;;;;;;;;;5036372;27;98569;-76
2022/06/08 06:45:10;;;;;;;0.10;0.10;;;;;;;;;;5053705;27;98336;-78
2022/06/08 06:47:43;;;;;;;0.10;0.10;;;;;;;;;;5054159;27;99507;-77
2022/06/08 06:50:20;;;;;;;3.83;1.23;;;;;;;;;;5035790;27;98494;-78
2022/06/08 06:52:48;;;;;;;0.10;0.10;;;;;;;;;;5038603;27;101195;-79
2022/06/08 06:55:20;;;;;;;0.28;0.28;;;;;;;;;;5036355;27;98461;-78
2022/06/08 06:57:47;;;;;;;0.10;0.10;;;;;;;;;;5054334;27;98710;-76
2022/06/08 07:00:16;;;;;;;0.20;0.20;;;;;;;;;;5035425;27;100281;-73
2022/06/08 07:02:43;;;;;;;0.10;0.10;;;;;;;;;;5035315;27;98433;-74
2022/06/08 07:05:15;;;;;;;0.10;0.10;;;;;;;;;;5035413;27;101300;-72
2022/06/08 07:07:41;;;;;;;0.20;0.20;;;;;;;;;;5035531;27;102147;-72
2022/06/08 07:10:08;;;;;;;0.10;0.10;;;;;;;;;;5035656;27;97831;-73
2022/06/08 07:12:35;;;;;;;0.63;0.63;;;;;;;;;;5035793;27;101902;-74
2022/06/08 07:15:01;;;;;;;0.05;0.05;;;;;;;;;;5038635;27;102126;-77
2022/06/08 07:17:28;;;;;;;0.20;0.20;;;;;;;;;;5035361;27;100251;-75
2022/06/08 07:19:55;;;;;;;0.00;0.00;;;;;;;;;;5035306;27;101823;-76
2022/06/08 07:22:21;;;;;;;0.00;0.00;;;;;;;;;;5035541;27;98408;-74
2022/06/08 07:24:48;;;;;;;0.00;0.00;;;;;;;;;;5053647;27;99495;-73
2022/06/08 07:27:14;;;;;;;0.20;0.20;;;;;;;;;;5053453;27;99509;-74
2022/06/08 07:29:41;;;;;;;0.08;0.08;;;;;;;;;;5053518;27;98413;-74
2022/06/08 07:32:07;;;;;;;0.10;0.10;;;;;;;;;;5053288;27;98745;-76
2022/06/08 07:34:34;;;;;;;0.10;0.10;;;;;;;;;;5056790;27;99091;-74
2022/06/08 07:37:00;;;;;;;0.00;0.00;;;;;;;;;;5053741;27;98523;-73
2022/06/08 07:39:27;;;;;;;0.20;0.20;;;;;;;;;;5053215;27;99926;-74
2022/06/08 07:41:53;;;;;;;0.00;0.00;;;;;;;;;;5053554;27;98982;-72
2022/06/08 07:44:20;;;;;;;0.00;0.00;;;;;;;;;;5053406;27;99462;-74
2022/06/08 07:46:47;;;;;;;0.22;0.22;;;;;;;;;;5052853;27;99571;-74
2022/06/08 07:52:00;;;;;;;0.10;0.10;;;;;;;;;;5053318;27;98754;-74
2022/06/08 07:54:28;;;;;;;0.22;0.17;;;;;;;;;;5053000;27;99877;-73
2022/06/08 07:56:54;;;;;;;0.10;0.10;;;;;;;;;;5055934;27;98412;-74
2022/06/08 07:59:22;;;;;;;0.10;0.10;;;;;;;;;;5053298;27;98710;-73
2022/06/08 08:01:50;;;;;;;0.10;0.10;;;;;;;;;;5034888;27;99050;-73
2022/06/08 08:04:16;;;;;;;0.10;0.10;;;;;;;;;;5053202;27;98667;-73
2022/06/08 08:06:43;;;;;;;0.00;0.00;;;;;;;;;;5052146;27;100881;-73
2022/06/08 08:09:17;;;;;;;0.00;0.00;;;;;;;;;;5053140;27;98346;-73
2022/06/08 08:11:44;;;;;;;0.10;0.10;;;;;;;;;;5052302;27;99046;-74
2022/06/08 08:14:12;;;;;;;0.10;0.10;;;;;;;;;;5052812;27;99555;-73
2022/06/08 08:16:39;;;;;;;0.20;0.20;;;;;;;;;;5053025;27;98906;-74
2022/06/08 08:19:05;;;;;;;0.28;0.28;;;;;;;;;;5058676;27;98464;-73
2022/06/08 08:21:32;;;;;;;0.10;0.10;;;;;;;;;;5056509;27;98321;-72
2022/06/08 08:23:59;;;;;;;0.10;0.10;;;;;;;;;;5056849;27;99395;-73
2022/06/08 08:26:26;;;;;;;0.00;0.00;;;;;;;;;;5055573;27;101356;-74
2022/06/08 08:28:54;;;;;;;0.13;0.13;;;;;;;;;;5056475;27;98370;-73
2022/06/08 08:31:20;;;;;;;0.10;0.10;;;;;;;;;;5046323;27;99276;-73
2022/06/08 08:33:47;;;;;;;0.00;0.00;;;;;;;;;;5038243;27;98982;-73
2022/06/08 08:36:13;;;;;;;0.10;0.10;;;;;;;;;;5056265;27;98571;-73
2022/06/08 08:38:40;;;;;;;0.10;0.10;;;;;;;;;;5055797;27;99591;-73
2022/06/08 08:42:20;;;;;;;0.10;0.10;;;;;;;;;;5059168;27;99905;-73
2022/06/08 08:43:56;;;;;;;0.10;0.10;;;;;;;;;;5056039;27;99627;-73
2022/06/08 08:46:29;;;;;;;0.00;0.00;;;;;;;;;;5055767;27;99572;-73
2022/06/08 08:49:10;;;;;;;0.10;0.10;;;;;;;;;;5056759;27;97598;-73
2022/06/08 08:51:39;;;;;;;0.00;0.00;;;;;;;;;;5056328;27;98717;-73
2022/06/08 08:54:26;;;;;;;0.10;0.10;;;;;;;;;;5055607;27;99731;-73
2022/06/08 08:56:56;;;;;;;0.10;0.10;;;;;;;;;;5055494;27;99231;-73
2022/06/08 08:59:25;;;;;;;0.15;0.15;;;;;;;;;;5021192;27;101809;-74
2022/06/08 09:01:52;;;;;;;0.10;0.10;;;;;;;;;;5055564;27;99687;-73
2022/06/08 09:04:22;;;;;;;0.10;0.10;;;;;;;;;;5024400;27;98518;-73
2022/06/08 09:06:49;;;;;;;0.00;0.00;;;;;;;;;;5055776;27;99211;-73
2022/06/08 09:09:41;;;;;;;0.10;0.10;;;;;;;;;;5055985;27;98292;-73
2022/06/08 09:12:15;;;;;;;0.10;0.10;;;;;;;;;;5029726;27;99360;-74
2022/06/08 09:15:01;;;;;;;0.10;0.10;;;;;;;;;;5035049;27;99154;-73
2022/06/08 09:17:32;;;;;;;0.00;0.00;;;;;;;;;;5035940;27;98362;-73
2022/06/08 09:19:59;;;;;;;0.10;0.10;;;;;;;;;;5035119;27;99310;-73
2022/06/08 09:22:32;;;;;;;0.38;0.38;;;;;;;;;;5015889;28;99681;-72
2022/06/08 09:25:22;;;;;;;0.08;0.08;;;;;;;;;;5017287;28;98845;-72
2022/06/08 09:27:50;;;;;;;0.10;0.10;;;;;;;;;;5038587;27;98721;-72
2022/06/08 09:30:18;;;;;;;0.10;0.10;;;;;;;;;;5033840;27;98472;-72
2022/06/08 09:32:49;;;;;;;0.00;0.00;;;;;;;;;;5016526;27;102018;-74
2022/06/08 09:35:18;;;;;;;0.10;0.10;;;;;;;;;;5034233;27;100078;-76
2022/06/08 09:37:45;;;;;;;0.00;0.00;;;;;;;;;;5036041;27;98659;-75
2022/06/08 09:40:36;;;;;;;0.10;0.10;;;;;;;;;;5035094;27;99530;-75
2022/06/08 09:43:19;;;;;;;0.10;0.10;;;;;;;;;;5033603;27;99472;-74
2022/06/08 09:45:45;;;;;;;0.10;0.10;;;;;;;;;;5034173;27;98526;-74
2022/06/08 09:51:28;;;;;;;0.10;0.10;;;;;;;;;;5034259;27;98859;-75
2022/06/08 09:54:13;;;;;;;0.22;0.22;;;;;;;;;;5033633;27;99234;-75
2022/06/08 09:56:52;;;;;;;0.10;0.10;;;;;;;;;;5033565;28;100129;-78
2022/06/08 09:59:27;;;;;;;0.10;0.10;;;;;;;;;;5036346;27;98419;-76
2022/06/08 10:02:12;;;;;;;0.10;0.10;;;;;;;;;;5034306;27;98815;-75
2022/06/08 10:04:41;;;;;;;0.10;0.10;;;;;;;;;;5042320;27;102784;-72
2022/06/08 10:07:13;;;;;;;0.10;0.10;;;;;;;;;;5035274;28;97669;-68
2022/06/08 10:10:00;;;;;;;0.00;0.00;;;;;;;;;;5019700;28;98409;-69
2022/06/08 10:12:26;;;;;;;0.10;0.10;;;;;;;;;;5037072;27;99084;-70
2022/06/08 10:15:01;;;;;;;0.10;0.10;;;;;;;;;;5033623;27;99344;-69
2022/06/08 10:17:35;;;;;;;0.00;0.00;;;;;;;;;;5034217;27;99550;-70
2022/06/08 10:20:12;;;;;;;0.10;0.10;;;;;;;;;;5035376;27;98519;-69
2022/06/08 10:22:42;;;;;;;0.00;0.00;;;;;;;;;;5033922;27;99199;-70
2022/06/08 10:25:27;;;;;;;0.10;0.10;;;;;;;;;;5032777;27;100445;-73
2022/06/08 10:28:13;;;;;;;0.93;0.40;;;;;;;;;;5037548;27;98465;-78
2022/06/08 10:30:58;;;;;;;0.00;0.00;;;;;;;;;;5033618;27;99514;-78
2022/06/08 10:33:40;;;;;;;0.00;0.00;;;;;;;;;;5015060;28;102115;-74
2022/06/08 10:36:10;;;;;;;0.00;0.00;;;;;;;;;;5019164;27;98483;-77
2022/06/08 10:38:38;;;;;;;0.10;0.10;;;;;;;;;;5015429;28;99975;-76
2022/06/08 10:42:38;;;;;;;0.00;0.00;;;;;;;;;;5031984;27;99149;-75
2022/06/08 10:43:51;;;;;;;0.38;0.38;;;;;;;;;;5032890;27;100140;-76
2022/06/08 10:46:29;;;;;;;0.28;0.28;;;;;;;;;;5033089;27;99593;-76
2022/06/08 10:48:56;;;;;;;0.00;0.00;;;;;;;;;;5033496;27;100102;-77
2022/06/08 10:51:25;;;;;;;0.00;0.00;;;;;;;;;;5033633;27;99652;-76
2022/06/08 10:56:55;;;;;;;0.10;0.10;;;;;;;;;;5033469;27;98483;-77
2022/06/08 10:59:25;;;;;;;0.10;0.10;;;;;;;;;;5019334;28;101937;-75
2022/06/08 11:01:53;;;;;;;0.10;0.10;;;;;;;;;;5033465;27;98382;-75
2022/06/08 11:07:10;;;;;;;0.00;0.00;;;;;;;;;;5031893;27;100598;-74
2022/06/08 11:09:53;;;;;;;0.00;0.00;;;;;;;;;;5021981;27;98597;-74
2022/06/08 11:12:39;;;;;;;0.00;0.00;;;;;;;;;;5033097;27;99825;-75
2022/06/08 11:15:16;;;;;;;0.28;0.28;;;;;;;;;;5032070;27;99403;-74
2022/06/08 11:17:49;;;;;;;0.45;0.45;;;;;;;;;;5034394;27;98439;-75
2022/06/08 11:20:22;;;;;;;0.10;0.10;;;;;;;;;;5033061;27;99300;-75
2022/06/08 11:23:01;;;;;;;0.10;0.10;;;;;;;;;;5035675;27;99716;-75
2022/06/08 11:25:30;;;;;;;0.10;0.10;;;;;;;;;;5033067;27;99473;-75
2022/06/08 11:28:16;;;;;;;0.00;0.00;;;;;;;;;;5032030;27;99136;-73
2022/06/08 11:30:42;;;;;;;0.10;0.10;;;;;;;;;;5014346;27;98487;-74
2022/06/08 11:33:14;;;;;;;0.00;0.00;;;;;;;;;;5032026;27;100505;-75
2022/06/08 11:35:40;;;;;;;;;;;;;;;;;;5032722;27;99684;-76
2022/06/08 11:38:27;;;;;;;0.00;0.00;;;;;;;;;;5033727;27;117876;-74
2022/06/08 11:41:00;;;;;;;0.20;0.20;;;;;;;;;;5032669;27;99445;-74
2022/06/08 11:43:31;;;;;;;0.10;0.10;;;;;;;;;;5032399;27;99126;-74
2022/06/08 11:45:58;;;;;;;0.03;0.03;;;;;;;;;;5035522;27;98394;-73
2022/06/08 11:48:27;;;;;;;0.00;0.00;;;;;;;;;;5034635;27;99709;-72
2022/06/08 11:50:55;;;;;;;0.00;0.00;;;;;;;;;;5033237;27;97879;-73
2022/06/08 11:53:31;;;;;;;0.00;0.00;;;;;;;;;;5014218;27;101129;-73
2022/06/08 11:56:13;;;;;;;0.10;0.10;;;;;;;;;;5032228;27;99670;-73
2022/06/08 11:58:55;;;;;;;0.10;0.10;;;;;;;;;;5034887;27;99257;-73
2022/06/08 12:01:23;;;;;;;0.45;0.28;;;;;;;;;;5032666;27;99514;-73
2022/06/08 12:04:12;;;;;;;0.00;0.00;;;;;;;;;;5014042;27;101249;-73
2022/06/08 12:06:40;;;;;;;0.00;0.00;;;;;;;;;;5035807;27;98471;-73
2022/06/08 12:09:10;;;;;;;0.00;0.00;;;;;;;;;;5035789;27;99055;-73
2022/06/08 12:11:42;;;;;;;0.10;0.10;;;;;;;;;;5031474;27;99508;-71
2022/06/08 12:14:17;;;;;;;0.20;0.20;;;;;;;;;;5032544;27;99489;-73
2022/06/08 12:16:52;;;;;;;0.00;0.00;;;;;;;;;;5032877;28;98783;-73
2022/06/08 12:19:21;;;;;;;0.00;0.00;;;;;;;;;;5032835;28;98344;-73
2022/06/08 12:21:49;;;;;;;0.00;0.00;;;;;;;;;;5031930;27;98738;-73
2022/06/08 12:24:20;;;;;;;0.10;0.10;;;;;;;;;;5031455;28;101855;-74
2022/06/08 12:26:51;;;;;;;0.00;0.00;;;;;;;;;;5014943;28;98393;-72
2022/06/08 12:29:36;;;;;;;0.10;0.10;;;;;;;;;;5035710;28;99314;-72
2022/06/08 12:32:05;;;;;;;0.10;0.10;;;;;;;;;;5032677;28;98450;-72
2022/06/08 12:34:34;;;;;;;0.03;0.03;;;;;;;;;;5031420;28;99355;-72
2022/06/08 12:37:30;;;;;;;0.10;0.10;;;;;;;;;;5032074;28;99987;-72
2022/06/08 12:39:58;;;;;;;0.00;0.00;;;;;;;;;;5010087;28;98523;-72
2022/06/08 12:42:26;;;;;;;0.00;0.00;;;;;;;;;;5032904;28;99414;-72
2022/06/08 12:45:00;;;;;;;0.57;0.22;;;;;;;;;;5032021;28;99649;-73
2022/06/08 12:47:30;;;;;;;0.00;0.00;;;;;;;;;;5030607;27;99225;-73
2022/06/08 12:49:56;;;;;;;0.00;0.00;;;;;;;;;;5031373;27;99189;-73
2022/06/08 12:52:24;;;;;;;0.00;0.00;;;;;;;;;;5034048;27;99468;-73
2022/06/08 12:54:51;;;;;;;0.00;0.00;;;;;;;;;;5031660;27;99615;-73
2022/06/08 12:57:24;;;;;;;0.10;0.10;;;;;;;;;;5033623;27;99594;-73
2022/06/08 12:59:52;;;;;;;0.10;0.10;;;;;;;;;;5031566;27;99437;-74
2022/06/08 13:02:21;;;;;;;0.10;0.10;;;;;;;;;;5031762;27;99237;-75
2022/06/08 13:04:48;;;;;;;0.00;0.00;;;;;;;;;;5033043;27;99570;-74
2022/06/08 13:07:30;;;;;;;0.00;0.00;;;;;;;;;;5035539;27;97832;-73
2022/06/08 13:09:58;;;;;;;0.00;0.00;;;;;;;;;;5034802;27;98558;-73
2022/06/08 13:12:27;;;;;;;0.00;0.00;;;;;;;;;;5034321;27;99821;-73
2022/06/08 13:14:53;;;;;;;0.00;0.00;;;;;;;;;;5037531;27;99129;-73
2022/06/08 13:17:20;;;;;;;0.00;0.00;;;;;;;;;;5034382;27;99840;-75
2022/06/08 13:19:46;;;;;;;0.00;0.00;;;;;;;;;;5035669;27;98512;-74
2022/06/08 13:22:13;;;;;;;0.00;0.00;;;;;;;;;;5034768;27;99533;-74
2022/06/08 13:24:39;;;;;;;0.00;0.00;;;;;;;;;;5034246;27;99630;-73
2022/06/08 13:27:15;;;;;;;0.00;0.00;;;;;;;;;;5034788;27;98464;-74
2022/06/08 13:29:42;;;;;;;0.00;0.00;;;;;;;;;;5014982;27;102300;-75
2022/06/08 13:32:17;;;;;;;0.00;0.00;;;;;;;;;;5034208;27;98850;-74
2022/06/08 13:34:44;;;;;;;0.00;0.00;;;;;;;;;;5034353;27;98440;-74
2022/06/08 13:37:22;;;;;;;0.00;0.00;;;;;;;;;;5037599;27;99251;-73
2022/06/08 13:39:50;;;;;;;0.00;0.00;;;;;;;;;;5033748;27;100102;-74
2022/06/08 13:42:17;;;;;;;0.00;0.00;;;;;;;;;;5034308;27;99693;-74
2022/06/08 13:44:45;;;;;;;0.10;0.10;;;;;;;;;;5033889;27;100015;-75
2022/06/08 13:47:12;;;;;;;0.00;0.00;;;;;;;;;;5034319;27;98543;-75
2022/06/08 13:49:41;;;;;;;0.00;0.00;;;;;;;;;;5036644;27;98767;-73
2022/06/08 13:52:08;;;;;;;0.00;0.00;;;;;;;;;;5034098;27;99153;-73
2022/06/08 13:54:43;;;;;;;0.00;0.00;;;;;;;;;;5034365;27;98579;-73
2022/06/08 13:57:11;;;;;;;0.00;0.00;;;;;;;;;;5037936;27;99387;-74
2022/06/08 13:59:38;;;;;;;0.00;0.00;;;;;;;;;;5040029;27;98911;-73
2022/06/08 14:02:14;;;;;;;0.00;0.00;;;;;;;;;;5036928;27;99331;-73
2022/06/08 14:04:41;;;;;;;0.00;0.00;;;;;;;;;;5033207;27;100246;-72
2022/06/08 14:13:01;;;;;;;0.00;0.00;;;;;;;;;;5033589;27;99696;-73
2022/06/08 14:15:28;;;;;;;0.00;0.00;;;;;;;;;;5032505;27;98429;-74
2022/06/08 14:17:55;;;;;;;0.00;0.00;;;;;;;;;;5033686;27;99686;-72
2022/06/08 14:20:35;;;;;;;0.00;0.00;;;;;;;;;;5040571;27;100011;-73
2022/06/08 14:23:03;;;;;;;0.00;0.00;;;;;;;;;;5034360;27;99851;-73
2022/06/08 14:25:30;;;;;;;0.00;0.00;;;;;;;;;;5015025;28;99134;-73
2022/06/08 14:27:57;;;;;;;0.00;0.00;;;;;;;;;;5033741;27;98402;-73
2022/06/08 14:30:23;;;;;;;0.00;0.00;;;;;;;;;;5036680;27;99267;-73
2022/06/08 14:32:55;;;;;;;0.00;0.00;;;;;;;;;;5033377;27;99759;-72
2022/06/08 14:35:24;;;;;;;0.00;0.00;;;;;;;;;;5033633;27;98498;-73
2022/06/08 14:38:12;;;;;;;0.10;0.10;;;;;;;;;;5033262;27;100672;-73
2022/06/08 14:40:38;;;;;;;0.00;0.00;;;;;;;;;;5032806;27;98985;-74
2022/06/08 14:43:06;;;;;;;0.00;0.00;;;;;;;;;;5036815;27;98478;-73
2022/06/08 14:45:34;;;;;;;0.00;0.00;;;;;;;;;;5032931;27;99569;-72
2022/06/08 14:48:00;;;;;;;0.00;0.00;;;;;;;;;;5033862;27;97659;-73
2022/06/08 14:50:28;;;;;;;0.00;0.00;;;;;;;;;;5033487;27;98521;-74
2022/06/08 14:52:55;;;;;;;0.00;0.00;;;;;;;;;;5032931;27;99587;-74
2022/06/08 14:58:13;;;;;;;0.00;0.00;;;;;;;;;;5033491;27;100243;-73
2022/06/08 15:00:40;;;;;;;0.00;0.00;;;;;;;;;;5014216;27;101281;-73
2022/06/08 15:03:08;;;;;;;0.00;0.00;;;;;;;;;;5032752;27;98486;-74
2022/06/08 15:05:35;;;;;;;0.00;0.00;;;;;;;;;;5036036;27;99359;-73
2022/06/08 15:08:01;;;;;;;0.00;0.00;;;;;;;;;;5032897;27;98481;-72
2022/06/08 15:10:28;;;;;;;0.00;0.00;;;;;;;;;;5034399;27;99357;-73
2022/06/08 15:12:58;;;;;;;0.00;0.00;;;;;;;;;;5033099;27;98496;-71
2022/06/08 15:15:26;;;;;;;0.00;0.00;;;;;;;;;;5032956;27;98330;-71
2022/06/08 15:17:54;;;;;;;0.00;0.00;;;;;;;;;;5014502;27;100877;-71
2022/06/08 15:20:23;;;;;;;0.00;0.00;;;;;;;;;;5033191;27;100285;-71
2022/06/08 15:22:51;;;;;;;0.00;0.00;;;;;;;;;;5032649;27;98375;-72
2022/06/08 15:25:19;;;;;;;0.00;0.00;;;;;;;;;;5032632;27;98828;-72